sensor_id;sensor_type;location;lat;lon;timestamp;pressure;altitude;pressure_sealevel;temperature;humidity
77281;BME280;66339;47.262;17.144;2024-01-30T00:01:25;102365.19;;;21.29;36.64
77281;BME280;66339;47.262;17.144;2024-01-30T00:03:52;102368.13;;;21.28;36.72
77281;BME280;66339;47.262;17.144;2024-01-30T00:06:21;102366.72;;;21.25;36.71
77281;BME280;66339;47.262;17.144;2024-01-30T00:08:47;102373.41;;;21.23;36.77
77281;BME280;66339;47.262;17.144;2024-01-30T00:11:14;102372.81;;;21.21;36.72
77281;BME280;66339;47.262;17.144;2024-01-30T00:13:47;102373.28;;;21.18;36.81
77281;BME280;66339;47.262;17.144;2024-01-30T00:16:22;102370.03;;;21.16;36.80
77281;BME280;66339;47.262;17.144;2024-01-30T00:18:55;102375.06;;;21.12;36.81
77281;BME280;66339;47.262;17.144;2024-01-30T00:21:22;102378.00;;;21.11;36.83
77281;BME280;66339;47.262;17.144;2024-01-30T00:23:53;102378.47;;;21.07;36.91
77281;BME280;66339;47.262;17.144;2024-01-30T00:26:26;102381.63;;;21.04;36.93
77281;BME280;66339;47.262;17.144;2024-01-30T00:28:55;102374.62;;;21.03;36.97
77281;BME280;66339;47.262;17.144;2024-01-30T00:31:22;102379.41;;;21.01;37.03
77281;BME280;66339;47.262;17.144;2024-01-30T00:33:49;102376.16;;;20.99;37.04
77281;BME280;66339;47.262;17.144;2024-01-30T00:36:16;102372.87;;;20.97;37.29
77281;BME280;66339;47.262;17.144;2024-01-30T00:38:46;102369.59;;;20.95;37.14
77281;BME280;66339;47.262;17.144;2024-01-30T00:41:12;102365.50;;;20.93;37.16
77281;BME280;66339;47.262;17.144;2024-01-30T00:43:41;102367.38;;;20.92;37.15
77281;BME280;66339;47.262;17.144;2024-01-30T00:46:10;102372.16;;;20.90;37.17
77281;BME280;66339;47.262;17.144;2024-01-30T00:48:40;102358.97;;;20.89;37.18
77281;BME280;66339;47.262;17.144;2024-01-30T00:51:10;102361.91;;;20.87;37.28
77281;BME280;66339;47.262;17.144;2024-01-30T00:53:38;102354.84;;;20.86;37.27
77281;BME280;66339;47.262;17.144;2024-01-30T00:56:08;102347.03;;;20.84;37.27
77281;BME280;66339;47.262;17.144;2024-01-30T00:58:34;102353.69;;;20.82;37.29
77281;BME280;66339;47.262;17.144;2024-01-30T01:01:01;102345.06;;;20.80;37.28
77281;BME280;66339;47.262;17.144;2024-01-30T01:03:34;102350.44;;;20.80;37.28
77281;BME280;66339;47.262;17.144;2024-01-30T01:06:02;102357.09;;;20.77;37.37
77281;BME280;66339;47.262;17.144;2024-01-30T01:08:32;102354.66;;;20.76;37.33
77281;BME280;66339;47.262;17.144;2024-01-30T01:10:59;102355.69;;;20.75;37.31
77281;BME280;66339;47.262;17.144;2024-01-30T01:13:28;102351.38;;;20.74;37.32
77281;BME280;66339;47.262;17.144;2024-01-30T01:15:54;102355.13;;;20.73;37.30
77281;BME280;66339;47.262;17.144;2024-01-30T01:18:21;102342.72;;;20.72;37.29
77281;BME280;66339;47.262;17.144;2024-01-30T01:20:53;102344.81;;;20.70;37.29
77281;BME280;66339;47.262;17.144;2024-01-30T01:23:26;102351.25;;;20.69;37.27
77281;BME280;66339;47.262;17.144;2024-01-30T01:25:55;102357.69;;;20.68;37.30
77281;BME280;66339;47.262;17.144;2024-01-30T01:28:29;102351.72;;;20.66;37.30
77281;BME280;66339;47.262;17.144;2024-01-30T01:30:56;102361.41;;;20.67;37.29
77281;BME280;66339;47.262;17.144;2024-01-30T01:33:24;102358.72;;;20.67;37.26
77281;BME280;66339;47.262;17.144;2024-01-30T01:35:51;102360.84;;;20.65;37.29
77281;BME280;66339;47.262;17.144;2024-01-30T01:38:18;102360.25;;;20.63;37.38
77281;BME280;66339;47.262;17.144;2024-01-30T01:40:44;102349.50;;;20.63;37.33
77281;BME280;66339;47.262;17.144;2024-01-30T01:43:14;102347.88;;;20.62;37.33
77281;BME280;66339;47.262;17.144;2024-01-30T01:45:44;102353.50;;;20.60;37.36
77281;BME280;66339;47.262;17.144;2024-01-30T01:48:13;102352.69;;;20.59;37.33
77281;BME280;66339;47.262;17.144;2024-01-30T01:50:42;102354.75;;;20.57;37.36
77281;BME280;66339;47.262;17.144;2024-01-30T01:53:09;102354.75;;;20.57;37.42
77281;BME280;66339;47.262;17.144;2024-01-30T01:55:36;102349.63;;;20.56;37.39
77281;BME280;66339;47.262;17.144;2024-01-30T01:58:06;102344.47;;;20.54;37.45
77281;BME280;66339;47.262;17.144;2024-01-30T02:00:39;102349.84;;;20.54;37.47
77281;BME280;66339;47.262;17.144;2024-01-30T02:03:09;102341.22;;;20.52;37.44
77281;BME280;66339;47.262;17.144;2024-01-30T02:05:36;102341.44;;;20.51;37.43
77281;BME280;66339;47.262;17.144;2024-01-30T02:08:03;102336.50;;;20.48;37.45
77281;BME280;66339;47.262;17.144;2024-01-30T02:10:30;102341.03;;;20.47;37.43
77281;BME280;66339;47.262;17.144;2024-01-30T02:13:04;102350.16;;;20.46;37.46
77281;BME280;66339;47.262;17.144;2024-01-30T02:15:30;102336.16;;;20.44;37.48
77281;BME280;66339;47.262;17.144;2024-01-30T02:17:57;102334.50;;;20.43;37.47
77281;BME280;66339;47.262;17.144;2024-01-30T02:20:28;102325.88;;;20.41;37.48
77281;BME280;66339;47.262;17.144;2024-01-30T02:22:56;102325.06;;;20.41;37.42
77281;BME280;66339;47.262;17.144;2024-01-30T02:25:32;102328.81;;;20.40;37.41
77281;BME280;66339;47.262;17.144;2024-01-30T02:28:01;102327.94;;;20.39;37.46
77281;BME280;66339;47.262;17.144;2024-01-30T02:30:35;102327.12;;;20.39;37.41
77281;BME280;66339;47.262;17.144;2024-01-30T02:33:01;102323.06;;;20.36;37.46
77281;BME280;66339;47.262;17.144;2024-01-30T02:35:30;102326.78;;;20.35;37.43
77281;BME280;66339;47.262;17.144;2024-01-30T02:38:03;102327.84;;;20.34;37.40
77281;BME280;66339;47.262;17.144;2024-01-30T02:40:30;102329.72;;;20.33;37.45
77281;BME280;66339;47.262;17.144;2024-01-30T02:43:03;102323.53;;;20.33;37.49
77281;BME280;66339;47.262;17.144;2024-01-30T02:45:33;102324.59;;;20.32;37.48
77281;BME280;66339;47.262;17.144;2024-01-30T02:47:59;102319.22;;;20.32;37.44
77281;BME280;66339;47.262;17.144;2024-01-30T02:50:29;102316.97;;;20.29;37.43
77281;BME280;66339;47.262;17.144;2024-01-30T02:53:01;102316.97;;;20.29;37.47
77281;BME280;66339;47.262;17.144;2024-01-30T02:55:28;102319.66;;;20.29;37.40
77281;BME280;66339;47.262;17.144;2024-01-30T02:57:54;102324.44;;;20.27;37.42
77281;BME280;66339;47.262;17.144;2024-01-30T03:00:21;102320.12;;;20.26;37.43
77281;BME280;66339;47.262;17.144;2024-01-30T03:02:47;102318.50;;;20.25;37.41
77281;BME280;66339;47.262;17.144;2024-01-30T03:05:17;102315.00;;;20.24;37.41
77281;BME280;66339;47.262;17.144;2024-01-30T03:07:43;102310.44;;;20.25;37.37
77281;BME280;66339;47.262;17.144;2024-01-30T03:10:11;102323.28;;;20.23;37.39
77281;BME280;66339;47.262;17.144;2024-01-30T03:12:38;102320.84;;;20.21;37.42
77281;BME280;66339;47.262;17.144;2024-01-30T03:15:04;102322.09;;;20.19;37.78
77281;BME280;66339;47.262;17.144;2024-01-30T03:17:31;102319.66;;;20.17;38.27
77281;BME280;66339;47.262;17.144;2024-01-30T03:19:58;102320.94;;;20.15;37.35
77281;BME280;66339;47.262;17.144;2024-01-30T03:22:28;102326.75;;;20.11;37.00
77281;BME280;66339;47.262;17.144;2024-01-30T03:24:59;102321.87;;;20.08;37.38
77281;BME280;66339;47.262;17.144;2024-01-30T03:27:28;102320.22;;;20.07;37.53
77281;BME280;66339;47.262;17.144;2024-01-30T03:29:57;102327.44;;;20.07;37.56
77281;BME280;66339;47.262;17.144;2024-01-30T03:32:27;102318.59;;;20.06;37.54
77281;BME280;66339;47.262;17.144;2024-01-30T03:35:00;102316.94;;;20.05;37.53
77281;BME280;66339;47.262;17.144;2024-01-30T03:37:30;102313.66;;;20.03;37.54
77281;BME280;66339;47.262;17.144;2024-01-30T03:39:56;102318.47;;;20.01;37.54
77281;BME280;66339;47.262;17.144;2024-01-30T03:42:23;102314.16;;;20.00;37.46
77281;BME280;66339;47.262;17.144;2024-01-30T03:44:52;102316.22;;;19.98;37.52
77281;BME280;66339;47.262;17.144;2024-01-30T03:47:24;102310.03;;;19.98;37.49
77281;BME280;66339;47.262;17.144;2024-01-30T03:49:57;102312.94;;;19.96;37.52
77281;BME280;66339;47.262;17.144;2024-01-30T03:52:24;102316.69;;;19.95;37.49
77281;BME280;66339;47.262;17.144;2024-01-30T03:54:59;102307.81;;;19.95;37.43
77281;BME280;66339;47.262;17.144;2024-01-30T03:57:26;102313.44;;;19.93;37.38
77281;BME280;66339;47.262;17.144;2024-01-30T03:59:55;102315.50;;;19.91;37.41
77281;BME280;66339;47.262;17.144;2024-01-30T04:02:27;102310.12;;;19.91;37.38
77281;BME280;66339;47.262;17.144;2024-01-30T04:05:01;102306.88;;;19.89;37.38
77281;BME280;66339;47.262;17.144;2024-01-30T04:07:31;102304.19;;;19.89;37.37
77281;BME280;66339;47.262;17.144;2024-01-30T04:09:58;102312.25;;;19.89;37.32
77281;BME280;66339;47.262;17.144;2024-01-30T04:12:24;102308.97;;;19.87;37.36
77281;BME280;66339;47.262;17.144;2024-01-30T04:14:54;102302.78;;;19.86;37.35
77281;BME280;66339;47.262;17.144;2024-01-30T04:17:20;102304.66;;;19.86;37.36
77281;BME280;66339;47.262;17.144;2024-01-30T04:19:47;102309.41;;;19.84;37.34
77281;BME280;66339;47.262;17.144;2024-01-30T04:22:19;102309.66;;;19.82;37.33
77281;BME280;66339;47.262;17.144;2024-01-30T04:24:46;102305.34;;;19.81;37.40
77281;BME280;66339;47.262;17.144;2024-01-30T04:27:13;102310.94;;;19.80;37.38
77281;BME280;66339;47.262;17.144;2024-01-30T04:29:43;102306.59;;;19.79;37.34
77281;BME280;66339;47.262;17.144;2024-01-30T04:32:12;102316.53;;;19.78;37.33
77281;BME280;66339;47.262;17.144;2024-01-30T04:34:38;102308.72;;;19.77;37.34
77281;BME280;66339;47.262;17.144;2024-01-30T04:37:05;102304.37;;;19.76;37.34
77281;BME280;66339;47.262;17.144;2024-01-30T04:39:33;102306.25;;;19.75;37.30
77281;BME280;66339;47.262;17.144;2024-01-30T04:42:02;102310.81;;;19.75;37.31
77281;BME280;66339;47.262;17.144;2024-01-30T04:44:32;102309.19;;;19.74;37.29
77281;BME280;66339;47.262;17.144;2024-01-30T04:46:58;102303.81;;;19.74;37.31
77281;BME280;66339;47.262;17.144;2024-01-30T04:49:25;102303.19;;;19.72;37.29
77281;BME280;66339;47.262;17.144;2024-01-30T04:51:52;102303.44;;;19.70;37.34
77281;BME280;66339;47.262;17.144;2024-01-30T04:54:22;102308.00;;;19.70;37.37
77281;BME280;66339;47.262;17.144;2024-01-30T04:56:49;102309.03;;;19.69;37.34
77281;BME280;66339;47.262;17.144;2024-01-30T04:59:19;102310.06;;;19.68;37.35
77281;BME280;66339;47.262;17.144;2024-01-30T05:01:49;102303.06;;;19.67;37.33
77281;BME280;66339;47.262;17.144;2024-01-30T05:04:16;102306.00;;;19.65;37.32
77281;BME280;66339;47.262;17.144;2024-01-30T05:06:45;102310.53;;;19.65;37.34
77281;BME280;66339;47.262;17.144;2024-01-30T05:09:12;102314.06;;;19.65;37.32
77281;BME280;66339;47.262;17.144;2024-01-30T05:11:39;102315.91;;;19.65;37.34
77281;BME280;66339;47.262;17.144;2024-01-30T05:14:07;102318.56;;;19.65;37.32
77281;BME280;66339;47.262;17.144;2024-01-30T05:16:34;102321.25;;;19.65;37.29
77281;BME280;66339;47.262;17.144;2024-01-30T05:19:07;102319.62;;;19.64;37.32
77281;BME280;66339;47.262;17.144;2024-01-30T05:21:34;102326.62;;;19.65;37.31
77281;BME280;66339;47.262;17.144;2024-01-30T05:24:04;102328.28;;;19.66;37.28
77281;BME280;66339;47.262;17.144;2024-01-30T05:26:30;102329.31;;;19.65;37.28
77281;BME280;66339;47.262;17.144;2024-01-30T05:29:05;102326.62;;;19.65;37.24
77281;BME280;66339;47.262;17.144;2024-01-30T05:31:32;102329.31;;;19.65;37.28
77281;BME280;66339;47.262;17.144;2024-01-30T05:33:59;102325.00;;;19.64;37.21
77281;BME280;66339;47.262;17.144;2024-01-30T05:36:34;102320.44;;;19.64;37.22
77281;BME280;66339;47.262;17.144;2024-01-30T05:39:01;102326.62;;;19.65;37.33
77281;BME280;66339;47.262;17.144;2024-01-30T05:41:30;102327.47;;;19.65;37.33
77281;BME280;66339;47.262;17.144;2024-01-30T05:44:00;102319.19;;;19.67;37.35
77281;BME280;66339;47.262;17.144;2024-01-30T05:46:29;102326.19;;;19.68;37.39
77281;BME280;66339;47.262;17.144;2024-01-30T05:48:56;102324.91;;;19.70;37.38
77281;BME280;66339;47.262;17.144;2024-01-30T05:51:23;102327.38;;;19.72;37.35
77281;BME280;66339;47.262;17.144;2024-01-30T05:53:50;102324.47;;;19.73;37.31
77281;BME280;66339;47.262;17.144;2024-01-30T05:56:18;102325.84;;;19.76;37.33
77281;BME280;66339;47.262;17.144;2024-01-30T05:58:48;102329.16;;;19.78;37.26
77281;BME280;66339;47.262;17.144;2024-01-30T06:01:20;102325.41;;;19.79;37.25
77281;BME280;66339;47.262;17.144;2024-01-30T06:03:47;102331.37;;;19.81;37.22
77281;BME280;66339;47.262;17.144;2024-01-30T06:06:17;102326.81;;;19.81;37.23
77281;BME280;66339;47.262;17.144;2024-01-30T06:08:43;102330.91;;;19.84;37.19
77281;BME280;66339;47.262;17.144;2024-01-30T06:11:10;102327.19;;;19.85;37.25
77281;BME280;66339;47.262;17.144;2024-01-30T06:13:40;102329.62;;;19.86;37.17
77281;BME280;66339;47.262;17.144;2024-01-30T06:16:12;102323.19;;;19.87;37.37
77281;BME280;66339;47.262;17.144;2024-01-30T06:18:39;102323.81;;;19.90;37.78
77281;BME280;66339;47.262;17.144;2024-01-30T06:21:06;102327.75;;;19.87;38.08
77281;BME280;66339;47.262;17.144;2024-01-30T06:23:36;102337.44;;;19.88;38.25
77281;BME280;66339;47.262;17.144;2024-01-30T06:26:06;102337.38;;;19.65;31.31
77281;BME280;66339;47.262;17.144;2024-01-30T06:28:35;102343.59;;;19.28;30.18
77281;BME280;66339;47.262;17.144;2024-01-30T06:31:05;102329.97;;;18.93;29.69
77281;BME280;66339;47.262;17.144;2024-01-30T06:33:32;102333.84;;;18.79;32.33
77281;BME280;66339;47.262;17.144;2024-01-30T06:35:58;102336.69;;;18.84;35.30
77281;BME280;66339;47.262;17.144;2024-01-30T06:38:30;102339.66;;;18.94;36.60
77281;BME280;66339;47.262;17.144;2024-01-30T06:40:59;102343.47;;;19.05;37.16
77281;BME280;66339;47.262;17.144;2024-01-30T06:43:26;102340.28;;;19.15;37.33
77281;BME280;66339;47.262;17.144;2024-01-30T06:45:53;102338.91;;;19.24;37.67
77281;BME280;66339;47.262;17.144;2024-01-30T06:48:20;102332.41;;;19.31;37.58
77281;BME280;66339;47.262;17.144;2024-01-30T06:50:46;102333.97;;;19.39;37.55
77281;BME280;66339;47.262;17.144;2024-01-30T06:53:16;102337.59;;;19.45;37.61
77281;BME280;66339;47.262;17.144;2024-01-30T06:55:46;102347.44;;;19.51;37.64
77281;BME280;66339;47.262;17.144;2024-01-30T06:58:15;102346.53;;;19.57;37.77
77281;BME280;66339;47.262;17.144;2024-01-30T07:00:42;102350.44;;;19.61;37.81
77281;BME280;66339;47.262;17.144;2024-01-30T07:03:09;102353.47;;;19.65;37.96
77281;BME280;66339;47.262;17.144;2024-01-30T07:05:39;102348.94;;;19.65;37.84
77281;BME280;66339;47.262;17.144;2024-01-30T07:08:05;102358.41;;;19.68;38.56
77281;BME280;66339;47.262;17.144;2024-01-30T07:10:32;102351.97;;;19.69;38.79
77281;BME280;66339;47.262;17.144;2024-01-30T07:13:00;102355.84;;;19.73;39.06
77281;BME280;66339;47.262;17.144;2024-01-30T07:15:29;102357.88;;;19.77;38.76
77281;BME280;66339;47.262;17.144;2024-01-30T07:17:56;102357.88;;;19.77;38.69
77281;BME280;66339;47.262;17.144;2024-01-30T07:20:22;102360.31;;;19.79;38.85
77281;BME280;66339;47.262;17.144;2024-01-30T07:22:54;102368.97;;;19.81;39.12
77281;BME280;66339;47.262;17.144;2024-01-30T07:25:27;102377.16;;;19.86;39.35
77281;BME280;66339;47.262;17.144;2024-01-30T07:27:54;102368.66;;;19.89;39.28
77281;BME280;66339;47.262;17.144;2024-01-30T07:30:24;102369.22;;;19.91;39.16
77281;BME280;66339;47.262;17.144;2024-01-30T07:32:53;102375.66;;;19.90;39.18
77281;BME280;66339;47.262;17.144;2024-01-30T07:35:20;102375.19;;;19.93;39.11
77281;BME280;66339;47.262;17.144;2024-01-30T07:37:51;102380.09;;;19.96;39.08
77281;BME280;66339;47.262;17.144;2024-01-30T07:40:17;102376.59;;;19.96;39.21
77281;BME280;66339;47.262;17.144;2024-01-30T07:42:44;102375.78;;;19.95;39.46
77281;BME280;66339;47.262;17.144;2024-01-30T07:45:14;102373.69;;;19.97;39.17
77281;BME280;66339;47.262;17.144;2024-01-30T07:47:40;102372.63;;;19.98;39.18
77281;BME280;66339;47.262;17.144;2024-01-30T07:50:14;102368.31;;;19.97;39.27
77281;BME280;66339;47.262;17.144;2024-01-30T07:52:43;102366.66;;;19.96;33.82
77281;BME280;66339;47.262;17.144;2024-01-30T07:57:55;102371.25;;;19.29;33.16
77281;BME280;66339;47.262;17.144;2024-01-30T08:00:22;102365.44;;;19.32;37.28
77281;BME280;66339;47.262;17.144;2024-01-30T08:02:49;102361.87;;;19.38;37.41
77281;BME280;66339;47.262;17.144;2024-01-30T08:05:16;102370.88;;;19.44;38.40
77281;BME280;66339;47.262;17.144;2024-01-30T08:07:43;102373.47;;;19.50;38.74
77281;BME280;66339;47.262;17.144;2024-01-30T08:10:11;102370.69;;;19.57;38.96
77281;BME280;66339;47.262;17.144;2024-01-30T08:12:38;102377.06;;;19.62;39.11
77281;BME280;66339;47.262;17.144;2024-01-30T08:15:05;102362.13;;;19.67;39.18
77281;BME280;66339;47.262;17.144;2024-01-30T08:17:32;102375.69;;;19.72;39.13
77281;BME280;66339;47.262;17.144;2024-01-30T08:20:06;102368.00;;;19.75;39.19
77281;BME280;66339;47.262;17.144;2024-01-30T08:22:33;102367.31;;;19.80;39.24
77281;BME280;66339;47.262;17.144;2024-01-30T08:25:03;102375.16;;;19.81;39.33
77281;BME280;66339;47.262;17.144;2024-01-30T08:27:33;102370.16;;;19.85;39.25
77281;BME280;66339;47.262;17.144;2024-01-30T08:29:59;102364.31;;;19.88;39.27
77281;BME280;66339;47.262;17.144;2024-01-30T08:32:34;102370.28;;;19.90;39.11
77281;BME280;66339;47.262;17.144;2024-01-30T08:35:04;102375.78;;;19.95;39.51
77281;BME280;66339;47.262;17.144;2024-01-30T08:37:35;102367.25;;;19.98;39.73
77281;BME280;66339;47.262;17.144;2024-01-30T08:40:04;102373.25;;;20.00;40.21
77281;BME280;66339;47.262;17.144;2024-01-30T08:42:36;102363.31;;;20.01;40.07
77281;BME280;66339;47.262;17.144;2024-01-30T08:45:06;102369.50;;;20.01;39.96
77281;BME280;66339;47.262;17.144;2024-01-30T08:47:33;102363.69;;;20.04;39.93
77281;BME280;66339;47.262;17.144;2024-01-30T08:50:00;102365.31;;;20.05;39.83
77281;BME280;66339;47.262;17.144;2024-01-30T08:52:30;102373.72;;;20.09;39.80
77281;BME280;66339;47.262;17.144;2024-01-30T08:54:56;102378.84;;;20.10;39.77
77281;BME280;66339;47.262;17.144;2024-01-30T08:57:23;102377.59;;;20.13;39.70
77281;BME280;66339;47.262;17.144;2024-01-30T08:59:50;102376.28;;;20.16;39.54
77281;BME280;66339;47.262;17.144;2024-01-30T09:02:16;102371.28;;;20.19;39.82
77281;BME280;66339;47.262;17.144;2024-01-30T09:04:46;102364.63;;;20.22;39.59
77281;BME280;66339;47.262;17.144;2024-01-30T09:07:15;102371.19;;;20.26;39.33
77281;BME280;66339;47.262;17.144;2024-01-30T09:09:42;102374.22;;;20.29;39.05
77281;BME280;66339;47.262;17.144;2024-01-30T09:12:12;102374.81;;;20.31;38.93
77281;BME280;66339;47.262;17.144;2024-01-30T09:14:42;102366.06;;;20.36;38.80
77281;BME280;66339;47.262;17.144;2024-01-30T09:17:09;102370.38;;;20.37;38.78
77281;BME280;66339;47.262;17.144;2024-01-30T09:19:42;102369.94;;;20.40;38.68
77281;BME280;66339;47.262;17.144;2024-01-30T09:22:08;102368.87;;;20.41;38.68
77281;BME280;66339;47.262;17.144;2024-01-30T09:24:38;102370.03;;;20.45;38.84
77281;BME280;66339;47.262;17.144;2024-01-30T09:27:07;102367.94;;;20.47;39.78
77281;BME280;66339;47.262;17.144;2024-01-30T09:29:36;102366.44;;;20.51;40.21
77281;BME280;66339;47.262;17.144;2024-01-30T09:32:03;102366.22;;;20.53;39.67
77281;BME280;66339;47.262;17.144;2024-01-30T09:34:33;102370.31;;;20.55;39.52
77281;BME280;66339;47.262;17.144;2024-01-30T09:37:00;102364.47;;;20.58;39.61
77281;BME280;66339;47.262;17.144;2024-01-30T09:39:30;102370.44;;;20.61;39.72
77281;BME280;66339;47.262;17.144;2024-01-30T09:44:59;102366.78;;;20.67;40.20
77281;BME280;66339;47.262;17.144;2024-01-30T09:47:36;102364.25;;;20.72;40.02
77281;BME280;66339;47.262;17.144;2024-01-30T09:50:06;102364.59;;;20.75;40.01
77281;BME280;66339;47.262;17.144;2024-01-30T09:52:38;102364.94;;;20.79;40.05
77281;BME280;66339;47.262;17.144;2024-01-30T09:55:11;102361.75;;;20.82;40.11
77281;BME280;66339;47.262;17.144;2024-01-30T09:57:37;102351.59;;;20.84;40.23
77281;BME280;66339;47.262;17.144;2024-01-30T10:00:06;102352.78;;;20.88;40.27
77281;BME280;66339;47.262;17.144;2024-01-30T10:02:38;102355.22;;;20.90;40.26
77281;BME280;66339;47.262;17.144;2024-01-30T10:05:04;102355.56;;;20.93;40.33
77281;BME280;66339;47.262;17.144;2024-01-30T10:07:31;102341.87;;;20.95;40.37
77281;BME280;66339;47.262;17.144;2024-01-30T10:09:59;102343.06;;;20.99;40.39
77281;BME280;66339;47.262;17.144;2024-01-30T10:12:29;102340.94;;;21.01;40.39
77281;BME280;66339;47.262;17.144;2024-01-30T10:14:59;102343.38;;;21.02;40.41
77281;BME280;66339;47.262;17.144;2024-01-30T10:17:25;102346.66;;;21.04;40.44
77281;BME280;66339;47.262;17.144;2024-01-30T10:20:04;102346.19;;;21.07;40.44
77281;BME280;66339;47.262;17.144;2024-01-30T10:22:34;102350.25;;;21.10;40.46
77281;BME280;66339;47.262;17.144;2024-01-30T10:25:00;102346.53;;;21.11;40.44
77281;BME280;66339;47.262;17.144;2024-01-30T10:27:31;102348.97;;;21.13;40.43
77281;BME280;66339;47.262;17.144;2024-01-30T10:29:58;102340.66;;;21.14;40.45
77281;BME280;66339;47.262;17.144;2024-01-30T10:32:27;102335.06;;;21.16;40.47
77281;BME280;66339;47.262;17.144;2024-01-30T10:34:54;102329.41;;;21.17;40.31
77281;BME280;66339;47.262;17.144;2024-01-30T10:37:29;102322.41;;;21.16;39.94
77281;BME280;66339;47.262;17.144;2024-01-30T10:39:56;102339.63;;;21.15;40.09
77281;BME280;66339;47.262;17.144;2024-01-30T10:42:31;102332.34;;;21.16;40.67
77281;BME280;66339;47.262;17.144;2024-01-30T10:47:28;102323.22;;;21.17;40.84
77281;BME280;66339;47.262;17.144;2024-01-30T10:49:55;102320.31;;;21.18;40.82
77281;BME280;66339;47.262;17.144;2024-01-30T10:52:23;102319.47;;;21.18;40.83
77281;BME280;66339;47.262;17.144;2024-01-30T10:54:53;102310.38;;;21.19;40.81
77281;BME280;66339;47.262;17.144;2024-01-30T10:57:24;102310.94;;;21.21;40.70
77281;BME280;66339;47.262;17.144;2024-01-30T10:59:52;102300.16;;;21.21;41.01
77281;BME280;66339;47.262;17.144;2024-01-30T11:02:23;102300.75;;;21.23;41.09
77281;BME280;66339;47.262;17.144;2024-01-30T11:04:54;102295.72;;;21.26;41.13
77281;BME280;66339;47.262;17.144;2024-01-30T11:07:28;102292.28;;;21.31;40.58
77281;BME280;66339;47.262;17.144;2024-01-30T11:12:49;102292.88;;;21.33;40.57
77281;BME280;66339;47.262;17.144;2024-01-30T11:15:20;102285.41;;;21.35;40.75
77281;BME280;66339;47.262;17.144;2024-01-30T11:17:50;102275.19;;;21.37;40.79
77281;BME280;66339;47.262;17.144;2024-01-30T11:20:27;102277.66;;;21.39;40.81
77281;BME280;66339;47.262;17.144;2024-01-30T11:23:01;102277.41;;;21.40;40.82
77281;BME280;66339;47.262;17.144;2024-01-30T11:25:28;102274.25;;;21.43;40.72
77281;BME280;66339;47.262;17.144;2024-01-30T11:28:00;102266.97;;;21.44;40.79
77281;BME280;66339;47.262;17.144;2024-01-30T11:30:30;102265.09;;;21.44;40.79
77281;BME280;66339;47.262;17.144;2024-01-30T11:35:32;102265.19;;;21.49;40.87
77281;BME280;66339;47.262;17.144;2024-01-30T11:40:59;102254.41;;;21.49;41.14
77281;BME280;66339;47.262;17.144;2024-01-30T11:43:27;102261.47;;;21.50;40.92
77281;BME280;66339;47.262;17.144;2024-01-30T11:45:54;102257.44;;;21.53;40.66
77281;BME280;66339;47.262;17.144;2024-01-30T11:48:24;102253.37;;;21.50;40.63
77281;BME280;66339;47.262;17.144;2024-01-30T11:50:57;102247.19;;;21.50;40.30
77281;BME280;66339;47.262;17.144;2024-01-30T11:53:27;102248.47;;;21.47;40.51
77281;BME280;66339;47.262;17.144;2024-01-30T11:55:54;102236.87;;;21.47;40.59
77281;BME280;66339;47.262;17.144;2024-01-30T11:58:25;102237.13;;;21.45;40.52
77281;BME280;66339;47.262;17.144;2024-01-30T12:01:01;102234.41;;;21.45;40.42
77281;BME280;66339;47.262;17.144;2024-01-30T12:03:27;102233.37;;;21.46;40.47
77281;BME280;66339;47.262;17.144;2024-01-30T12:05:58;102229.87;;;21.46;40.27
77281;BME280;66339;47.262;17.144;2024-01-30T12:08:26;102223.66;;;21.45;40.30
77281;BME280;66339;47.262;17.144;2024-01-30T12:11:00;102226.34;;;21.45;40.29
77281;BME280;66339;47.262;17.144;2024-01-30T12:13:30;102212.87;;;21.45;40.25
77281;BME280;66339;47.262;17.144;2024-01-30T12:16:02;102218.28;;;21.45;40.12
77281;BME280;66339;47.262;17.144;2024-01-30T12:18:29;102215.34;;;21.47;39.95
77281;BME280;66339;47.262;17.144;2024-01-30T12:20:59;102209.16;;;21.46;39.93
77281;BME280;66339;47.262;17.144;2024-01-30T12:23:28;102200.00;;;21.47;39.83
77281;BME280;66339;47.262;17.144;2024-01-30T12:25:55;102192.50;;;21.49;39.79
77281;BME280;66339;47.262;17.144;2024-01-30T12:28:28;102202.44;;;21.49;39.77
77281;BME280;66339;47.262;17.144;2024-01-30T12:30:56;102196.25;;;21.48;39.62
77281;BME280;66339;47.262;17.144;2024-01-30T12:33:32;102190.88;;;21.48;39.51
77281;BME280;66339;47.262;17.144;2024-01-30T12:36:06;102182.78;;;21.48;39.49
77281;BME280;66339;47.262;17.144;2024-01-30T12:38:33;102183.84;;;21.47;39.42
77281;BME280;66339;47.262;17.144;2024-01-30T12:41:09;102178.47;;;21.47;39.52
77281;BME280;66339;47.262;17.144;2024-01-30T12:43:36;102169.81;;;21.45;39.49
77281;BME280;66339;47.262;17.144;2024-01-30T12:46:07;102178.47;;;21.47;39.62
77281;BME280;66339;47.262;17.144;2024-01-30T12:48:38;102180.09;;;21.48;39.61
77281;BME280;66339;47.262;17.144;2024-01-30T12:51:05;102170.97;;;21.49;39.60
77281;BME280;66339;47.262;17.144;2024-01-30T12:53:32;102178.00;;;21.50;39.54
77281;BME280;66339;47.262;17.144;2024-01-30T12:55:59;102176.34;;;21.49;39.50
77281;BME280;66339;47.262;17.144;2024-01-30T12:58:29;102170.97;;;21.49;39.79
77281;BME280;66339;47.262;17.144;2024-01-30T13:00:59;102169.91;;;21.50;39.95
77281;BME280;66339;47.262;17.144;2024-01-30T13:03:25;102170.72;;;21.51;40.10
77281;BME280;66339;47.262;17.144;2024-01-30T13:05:53;102173.41;;;21.51;40.08